Datos actuales meteorológicos del Aeropuerto de Valencia      LEVC Valencia Airport



Temperatura
18°C Temperatura
12°C Punto de rocío
68% Humedad



Viento
3 KM/H
2 MPH
1 M/S
2 NUDO



Calma
Norte
Condiciones actuales

Claro Claro
Presión 1018.92 (hPa) - 30.09 (inHg)
Visibilidad 6.2 (milla) - 10 (km)
✈️ Manises
Código de aeropuerto LEVC

localidad: Valencia Airport
Distancia de Meteo Lliria: 18 (km)

Metar:
LEVC 080000Z VRB02KT CAVOK 18/12 Q1019 NOSIG

Hora: 08-05-2021 02:00 CEST

Follow @meteolliria2013